Time;durP1;ratioP1;P1;durP2;ratioP2;P2;SDS_P1;SDS_P2;PMS_P1;PMS_P2;Temp;Humidity;BMP_temperature;BMP_pressure;BME280_temperature;BME280_humidity;BME280_pressure;Samples;Min_cycle;Max_cycle;Signal;HPM_P1;HPM_P2
2020/12/10 00:01:35;;;;;;;20.15;14.28;;;3.20;99.90;;;7.70;85.00;100787.14;1700730;74;24449;-77
2020/12/10 00:03:52;;;;;;;19.28;13.20;;;3.10;99.90;;;7.59;84.75;100792.93;1702006;74;24940;-75
2020/12/10 00:06:09;;;;;;;22.49;15.47;;;2.90;99.90;;;7.36;84.90;100787.68;1701288;74;24962;-76
2020/12/10 00:08:26;;;;;;;21.13;15.04;;;2.80;99.90;;;7.42;84.73;100783.52;1703976;74;25155;-78
2020/12/10 00:10:42;;;;;;;21.25;15.54;;;2.70;99.90;;;7.31;84.15;100783.70;1694516;74;24557;-76
2020/12/10 00:12:59;;;;;;;24.74;16.45;;;2.60;99.90;;;7.37;84.26;100779.94;1708920;74;24558;-75
2020/12/10 00:15:16;;;;;;;24.16;16.10;;;2.50;99.90;;;7.33;83.84;100768.19;1706040;74;24427;-76
2020/12/10 00:17:33;;;;;;;23.74;16.85;;;2.40;99.90;;;7.23;83.22;100766.23;1706053;74;24927;-76
2020/12/10 00:19:50;;;;;;;23.60;16.54;;;2.20;99.90;;;7.15;83.30;100766.06;1700754;74;24999;-76
2020/12/10 00:22:06;;;;;;;24.56;16.62;;;2.10;99.90;;;7.08;82.93;100761.56;1704650;74;24503;-76
2020/12/10 00:24:23;;;;;;;26.52;17.69;;;2.00;99.90;;;6.95;82.53;100769.02;1706144;74;24430;-77
2020/12/10 00:26:39;;;;;;;27.30;18.04;;;1.90;99.90;;;6.82;82.12;100766.98;1702512;74;24431;-76
2020/12/10 00:28:56;;;;;;;24.40;17.05;;;1.90;99.90;;;6.83;82.09;100767.45;1709000;74;24425;-77
2020/12/10 00:31:12;;;;;;;28.20;18.54;;;1.80;99.90;;;6.83;82.86;100761.84;1697967;74;24536;-78
2020/12/10 00:33:29;;;;;;;26.26;17.88;;;1.70;99.90;;;6.78;82.83;100756.11;1702479;74;24495;-76
2020/12/10 00:35:46;;;;;;;25.67;19.22;;;1.60;99.90;;;6.68;82.33;100756.30;1706104;74;24448;-77
2020/12/10 00:38:02;;;;;;;27.52;17.85;;;1.60;99.90;;;6.66;82.34;100750.20;1690205;75;24437;-77
2020/12/10 00:40:19;;;;;;;29.40;18.85;;;1.50;99.90;;;6.67;82.31;100754.53;1694279;75;24429;-76
2020/12/10 00:42:35;;;;;;;29.63;19.00;;;1.40;99.90;;;6.65;81.61;100753.64;1693855;75;24571;-76
2020/12/10 00:44:53;;;;;;;28.60;19.28;;;1.40;99.90;;;6.52;80.53;100755.46;1694748;75;24896;-76
2020/12/10 00:47:11;;;;;;;29.52;20.10;;;1.30;99.90;;;6.55;80.59;100749.07;1693571;75;24375;-77
2020/12/10 00:49:28;;;;;;;29.65;19.62;;;1.30;99.90;;;6.49;80.10;100748.92;1694875;75;24933;-77
2020/12/10 00:51:48;;;;;;;30.69;19.94;;;1.30;99.90;;;6.56;81.87;100743.05;1691795;75;24452;-76
2020/12/10 00:54:06;;;;;;;29.99;19.70;;;1.30;99.90;;;6.56;82.85;100743.48;1672657;76;24483;-76
2020/12/10 00:56:22;;;;;;;29.48;19.46;;;1.20;99.90;;;6.42;81.53;100736.66;1695440;75;24893;-76
2020/12/10 00:58:38;;;;;;;30.92;19.92;;;1.20;99.90;;;6.48;81.21;100740.69;1691678;74;24445;-77
2020/12/10 01:00:55;;;;;;;30.06;19.37;;;1.20;99.90;;;6.43;80.95;100740.13;1704095;75;24429;-75
2020/12/10 01:03:11;;;;;;;31.32;19.88;;;1.20;99.90;;;6.39;80.53;100744.75;1691422;75;24528;-75
2020/12/10 01:05:28;;;;;;;31.07;20.35;;;1.10;99.90;;;6.32;80.70;100743.75;1692968;75;24489;-76
2020/12/10 01:07:44;;;;;;;31.50;20.47;;;1.10;99.90;;;6.36;81.59;100740.80;1694175;75;24493;-76
2020/12/10 01:10:01;;;;;;;36.70;21.47;;;1.10;99.90;;;6.34;81.91;100749.81;1699826;75;24869;-78
2020/12/10 01:12:19;;;;;;;31.67;20.02;;;1.10;99.90;;;6.30;81.57;100747.11;1691255;75;24493;-77
2020/12/10 01:14:35;;;;;;;34.12;20.23;;;1.00;99.90;;;6.14;80.41;100741.97;1693990;75;24463;-77
2020/12/10 01:16:51;;;;;;;34.12;21.47;;;0.90;99.90;;;6.20;80.97;100741.27;1694017;75;24543;-77
2020/12/10 01:19:07;;;;;;;34.89;21.23;;;0.90;99.90;;;6.14;80.80;100740.27;1691060;75;24520;-77
2020/12/10 01:21:34;;;;;;;37.13;22.25;;;0.80;99.90;;;6.12;80.95;100740.63;1696111;75;24881;-76
2020/12/10 01:23:50;;;;;;;35.10;21.55;;;0.80;99.90;;;6.02;80.55;100739.92;1697278;75;24610;-76
2020/12/10 01:26:07;;;;;;;34.03;21.00;;;0.80;99.90;;;6.01;81.37;100733.02;1689379;75;24449;-77
2020/12/10 01:28:24;;;;;;;36.87;22.39;;;0.70;99.90;;;5.95;80.52;100731.97;1698283;75;24972;-76
2020/12/10 01:30:40;;;;;;;39.76;22.51;;;0.70;99.90;;;5.95;81.20;100734.15;1691791;75;24451;-76
2020/12/10 01:32:57;;;;;;;34.96;22.55;;;0.60;99.90;;;5.90;81.13;100737.02;1691902;75;24474;-76
2020/12/10 01:35:14;;;;;;;38.47;22.82;;;0.60;99.90;;;5.88;81.99;100739.97;1695096;75;24468;-76
2020/12/10 01:37:30;;;;;;;38.06;22.74;;;0.50;99.90;;;5.83;81.88;100738.96;1707572;73;25224;-75
2020/12/10 01:39:46;;;;;;;41.08;23.77;;;0.40;99.90;;;5.83;82.57;100741.98;1706055;74;24480;-76
2020/12/10 01:42:03;;;;;;;38.15;22.88;;;0.40;99.90;;;5.74;82.82;100737.80;1702411;74;24441;-75
2020/12/10 01:44:19;;;;;;;41.45;25.06;;;0.40;99.90;;;5.70;83.84;100740.73;1704478;74;24866;-76
2020/12/10 01:46:38;;;;;;;42.19;24.70;;;0.30;99.90;;;5.70;84.52;100739.84;1711304;74;24554;-77
2020/12/10 01:48:54;;;;;;;41.72;25.21;;;0.30;99.90;;;5.67;84.92;100744.93;1698091;74;24948;-76
2020/12/10 01:51:11;;;;;;;40.73;23.42;;;0.20;99.90;;;5.60;85.21;100739.12;1699607;74;24980;-76
2020/12/10 01:53:27;;;;;;;43.60;24.44;;;0.20;99.90;;;5.57;85.61;100740.33;1703857;74;24433;-77
2020/12/10 01:55:46;;;;;;;45.20;24.25;;;0.20;99.90;;;5.58;86.11;100735.64;1704690;74;24444;-76
2020/12/10 01:58:03;;;;;;;47.13;25.43;;;0.20;99.90;;;5.54;85.11;100736.37;1698705;74;24357;-76
2020/12/10 02:00:18;;;;;;;52.09;26.05;;;0.20;99.90;;;5.57;82.88;100741.62;1706732;74;24452;-75
2020/12/10 02:02:34;;;;;;;45.76;25.92;;;0.20;99.90;;;5.69;82.28;100735.09;1707644;74;24618;-76
2020/12/10 02:04:50;;;;;;;43.44;23.89;;;0.30;99.90;;;5.64;81.44;100731.49;1699572;74;24369;-76
2020/12/10 02:07:07;;;;;;;46.79;25.88;;;0.30;99.90;;;5.58;81.22;100734.34;1700885;74;24442;-77
2020/12/10 02:09:24;;;;;;;48.66;25.26;;;0.30;99.90;;;5.59;81.28;100734.39;1705026;74;24915;-77
2020/12/10 02:11:41;;;;;;;48.40;26.39;;;0.30;99.90;;;5.58;81.79;100732.62;1705990;74;25168;-77
2020/12/10 02:13:57;;;;;;;46.29;25.31;;;0.30;99.90;;;5.51;81.54;100727.25;1700506;74;24865;-76
2020/12/10 02:16:14;;;;;;;41.36;24.33;;;0.30;99.90;;;5.42;81.40;100725.26;1710246;74;24529;-76
2020/12/10 02:18:30;;;;;;;44.75;25.24;;;0.30;99.90;;;5.38;81.28;100724.73;1704410;74;24885;-75
2020/12/10 02:20:46;;;;;;;40.03;23.13;;;0.20;99.90;;;5.27;80.95;100722.25;1707457;74;24939;-76
2020/12/10 02:23:04;;;;;;;44.96;24.10;;;0.20;99.90;;;5.20;81.08;100721.59;1705492;74;24448;-76
2020/12/10 02:25:20;;;;;;;44.00;24.74;;;0.30;99.90;;;5.27;81.78;100721.36;1710150;74;24534;-76
2020/12/10 02:27:36;;;;;;;44.60;24.94;;;0.20;99.90;;;5.32;81.75;100722.38;1704124;74;24860;-77
2020/12/10 02:29:52;;;;;;;47.61;25.83;;;0.20;99.90;;;5.34;81.97;100719.00;1701399;74;24444;-77
2020/12/10 02:32:07;;;;;;;50.37;26.86;;;0.20;99.90;;;5.31;82.15;100709.02;1702175;74;24503;-76
2020/12/10 02:34:23;;;;;;;47.09;26.82;;;0.10;99.90;;;5.25;81.78;100714.02;1709722;74;24506;-78
2020/12/10 02:36:41;;;;;;;48.71;26.14;;;0.10;99.90;;;5.22;81.87;100708.73;1700112;74;24949;-76
2020/12/10 02:38:58;;;;;;;46.90;25.10;;;0.10;99.90;;;5.07;81.42;100709.17;1700686;74;24358;-76
2020/12/10 02:41:16;;;;;;;45.18;26.00;;;0.10;99.90;;;5.02;81.87;100708.16;1703688;74;24451;-77
2020/12/10 02:43:32;;;;;;;44.34;23.30;;;0.10;99.90;;;5.19;82.68;100699.20;1704831;74;24912;-77
2020/12/10 02:45:48;;;;;;;44.05;24.43;;;0.10;99.90;;;4.99;81.91;100699.44;1706832;74;24427;-77
2020/12/10 02:48:06;;;;;;;46.56;25.53;;;0.10;99.90;;;4.99;82.23;100702.02;1703666;74;24875;-76
2020/12/10 02:50:23;;;;;;;47.87;25.31;;;0.00;99.90;;;5.06;82.20;100696.23;1698067;74;24436;-76
2020/12/10 02:52:39;;;;;;;44.08;25.21;;;0.00;99.90;;;4.98;81.81;100698.99;1701040;74;24511;-76
2020/12/10 02:54:55;;;;;;;50.13;27.92;;;0.00;99.90;;;5.01;82.48;100700.38;1708852;74;24968;-76
2020/12/10 02:57:12;;;;;;;43.09;24.74;;;0.00;99.90;;;5.08;82.78;100698.02;1709016;74;24943;-75
2020/12/10 02:59:27;;;;;;;43.10;25.02;;;-0.10;99.90;;;4.89;82.21;100687.97;1702595;74;24514;-76
2020/12/10 03:01:43;;;;;;;45.03;25.27;;;-0.10;99.90;;;4.95;82.59;100684.27;1706495;74;24949;-76
2020/12/10 03:03:59;;;;;;;47.06;25.79;;;-0.10;99.90;;;4.98;82.85;100674.48;1699456;74;24471;-77
2020/12/10 03:06:15;;;;;;;43.22;23.39;;;-0.10;99.90;;;4.95;82.50;100675.25;1705270;74;24510;-77
2020/12/10 03:08:31;;;;;;;44.56;24.85;;;-0.20;99.90;;;4.85;82.33;100672.36;1702752;74;24424;-77
2020/12/10 03:10:48;;;;;;;42.83;24.46;;;-0.20;99.90;;;4.85;82.20;100668.08;1698154;74;24374;-76
2020/12/10 03:13:06;;;;;;;42.88;24.07;;;-0.20;99.90;;;4.83;82.38;100666.27;1700958;74;24566;-76
2020/12/10 03:15:22;;;;;;;43.87;24.12;;;-0.20;99.90;;;4.83;82.31;100672.31;1701982;74;24540;-77
2020/12/10 03:17:39;;;;;;;43.36;25.28;;;-0.20;99.90;;;4.85;82.69;100668.48;1702879;74;24338;-76
2020/12/10 03:19:58;;;;;;;45.91;25.58;;;-0.30;99.90;;;4.77;82.16;100664.39;1700884;74;25032;-78
2020/12/10 03:22:17;;;;;;;42.80;23.51;;;-0.30;99.90;;;4.79;82.35;100669.16;1701268;74;24542;-77
2020/12/10 03:24:38;;;;;;;44.60;24.30;;;-0.30;99.90;;;4.75;82.02;100669.91;1707776;73;24487;-76
2020/12/10 03:26:56;;;;;;;41.22;24.52;;;-0.30;99.90;;;4.82;82.57;100671.83;1699335;74;24487;-76
2020/12/10 03:29:12;;;;;;;41.01;22.96;;;-0.30;99.90;;;4.77;82.20;100672.13;1702510;74;24512;-77
2020/12/10 03:31:28;;;;;;;42.80;24.53;;;-0.40;99.90;;;4.82;82.05;100678.27;1703873;74;24452;-76
2020/12/10 03:33:44;;;;;;;42.42;24.42;;;-0.40;99.90;;;4.83;82.59;100678.76;1703810;73;24482;-78
2020/12/10 03:36:00;;;;;;;41.97;24.12;;;-0.40;99.90;;;4.83;83.19;100678.76;1703634;74;24425;-77
2020/12/10 03:38:16;;;;;;;40.98;23.70;;;-0.50;99.90;;;4.74;82.66;100672.03;1703529;74;24485;-76
2020/12/10 03:40:32;;;;;;;44.99;23.63;;;-0.50;99.90;;;4.71;82.15;100674.92;1706518;74;24415;-76
2020/12/10 03:42:52;;;;;;;44.99;23.84;;;-0.50;99.90;;;4.69;81.74;100671.87;1700879;74;24384;-78
2020/12/10 03:45:09;;;;;;;47.81;24.50;;;-0.60;99.90;;;4.71;81.50;100667.19;1706042;74;24520;-77
2020/12/10 03:47:25;;;;;;;47.19;25.06;;;-0.50;99.90;;;4.72;81.61;100660.79;1704310;74;24493;-77
2020/12/10 03:49:41;;;;;;;48.30;25.31;;;-0.50;99.90;;;4.74;82.06;100660.43;1698860;74;24912;-75
2020/12/10 03:51:58;;;;;;;49.00;24.50;;;-0.60;99.90;;;4.73;82.46;100662.53;1702437;74;24538;-77
2020/12/10 03:54:14;;;;;;;45.86;24.56;;;-0.60;99.90;;;4.63;81.40;100661.38;1702411;74;24953;-77
2020/12/10 03:56:31;;;;;;;47.01;25.01;;;-0.60;99.90;;;4.65;81.32;100654.56;1706858;74;24527;-76
2020/12/10 03:58:47;;;;;;;46.18;25.21;;;-0.60;99.90;;;4.64;81.72;100661.85;1698329;74;24369;-77
2020/12/10 04:01:03;;;;;;;47.09;24.57;;;-0.60;99.90;;;4.81;82.88;100661.46;1698308;74;24869;-76
2020/12/10 04:03:19;;;;;;;48.28;26.00;;;-0.50;99.90;;;5.01;83.15;100666.83;1699794;74;24877;-76
2020/12/10 04:05:35;;;;;;;44.92;25.01;;;-0.50;99.90;;;4.93;81.45;100669.19;1700992;74;24488;-77
2020/12/10 04:07:53;;;;;;;45.92;25.72;;;-0.40;99.90;;;5.06;81.90;100668.70;1698298;74;24508;-77
2020/12/10 04:10:11;;;;;;;45.44;24.50;;;-0.30;99.90;;;5.12;81.89;100671.89;1698323;74;24855;-77
2020/12/10 04:12:27;;;;;;;45.17;24.27;;;-0.30;99.90;;;5.01;80.76;100666.83;1698867;74;24514;-76
2020/12/10 04:14:42;;;;;;;39.06;21.79;;;-0.20;99.90;;;4.83;80.79;100661.11;1704601;74;24424;-76
2020/12/10 04:16:59;;;;;;;39.58;22.28;;;-0.20;99.90;;;4.77;81.30;100660.92;1704517;74;24878;-75
2020/12/10 04:19:16;;;;;;;39.78;22.86;;;-0.30;99.90;;;4.74;81.71;100665.99;1709659;74;24476;-75
2020/12/10 04:21:32;;;;;;;42.50;23.01;;;-0.30;99.90;;;4.75;82.85;100663.86;1701508;74;24461;-77
2020/12/10 04:23:48;;;;;;;38.89;21.70;;;-0.40;99.90;;;4.68;83.69;100666.27;1701340;74;24884;-77
2020/12/10 04:26:05;;;;;;;39.80;21.73;;;-0.50;99.90;;;4.59;83.72;100667.67;1702849;74;25126;-77
2020/12/10 04:28:23;;;;;;;39.61;22.74;;;-0.60;99.90;;;4.41;82.35;100662.81;1701828;74;24447;-77
2020/12/10 04:30:41;;;;;;;42.65;22.90;;;-0.60;99.90;;;4.39;82.61;100659.30;1702854;74;24507;-75
2020/12/10 04:32:57;;;;;;;39.05;22.54;;;-0.60;99.90;;;4.43;82.34;100660.28;1709393;74;24600;-75
2020/12/10 04:35:12;;;;;;;39.95;22.62;;;-0.70;99.90;;;4.46;82.35;100653.53;1705052;74;24460;-77
2020/12/10 04:37:31;;;;;;;38.47;21.51;;;-0.70;99.90;;;4.37;82.09;100660.09;1700990;74;24470;-76
2020/12/10 04:39:47;;;;;;;40.29;22.14;;;-0.70;99.90;;;4.36;82.12;100652.77;1693799;74;24438;-76
2020/12/10 04:42:08;;;;;;;42.73;23.11;;;-0.70;99.90;;;4.39;82.38;100651.57;1684670;75;24394;-77
2020/12/10 04:44:22;;;;;;;45.53;23.35;;;-0.70;99.90;;;4.39;81.91;100657.16;1686991;75;24903;-76
2020/12/10 04:46:40;;;;;;;41.36;22.90;;;-0.70;99.90;;;4.36;81.80;100655.34;1689568;75;24439;-75
2020/12/10 04:48:57;;;;;;;46.34;24.30;;;-0.70;99.90;;;4.29;81.59;100653.41;1679281;75;24449;-77
2020/12/10 04:51:18;;;;;;;41.69;22.61;;;-0.70;99.90;;;4.43;82.48;100645.70;1679495;75;24497;-77
2020/12/10 04:53:35;;;;;;;42.03;22.66;;;-0.80;99.90;;;4.46;82.83;100651.36;1680804;75;24895;-77
2020/12/10 04:55:52;;;;;;;36.61;21.69;;;-0.80;99.90;;;4.36;82.37;100655.34;1680562;75;24438;-76
2020/12/10 04:58:10;;;;;;;44.78;23.81;;;-0.90;99.90;;;4.35;82.83;100648.85;1679657;75;24446;-76
2020/12/10 05:00:28;;;;;;;41.88;23.18;;;-0.90;99.90;;;4.36;83.33;100650.63;1686873;75;24493;-76
2020/12/10 05:02:45;;;;;;;45.98;23.84;;;-0.90;99.90;;;4.32;82.52;100651.33;1682860;75;24512;-77
2020/12/10 05:05:01;;;;;;;45.98;24.83;;;-1.00;99.90;;;4.33;82.01;100651.81;1685784;75;24430;-75
2020/12/10 05:07:19;;;;;;;47.12;24.07;;;-0.90;99.90;;;4.33;82.44;100655.25;1684303;75;24426;-76
2020/12/10 05:09:35;;;;;;;47.82;25.28;;;-0.90;99.90;;;4.31;81.65;100656.92;1678326;75;24535;-75
2020/12/10 05:11:51;;;;;;;53.19;26.48;;;-0.90;99.90;;;4.36;81.88;100651.48;1682046;75;24462;-75
2020/12/10 05:14:07;;;;;;;49.66;26.00;;;-0.90;99.90;;;4.38;82.47;100658.85;1687222;75;24540;-77
2020/12/10 05:16:24;;;;;;;49.94;26.62;;;-0.90;99.90;;;4.30;81.20;100653.86;1682634;75;24417;-77
2020/12/10 05:18:40;;;;;;;45.15;24.64;;;-0.90;99.90;;;4.35;81.69;100656.58;1687581;74;24487;-77
2020/12/10 05:20:58;;;;;;;49.69;25.38;;;-0.90;99.90;;;4.23;80.57;100653.63;1679874;75;24576;-76
2020/12/10 05:23:17;;;;;;;50.77;25.16;;;-0.90;99.90;;;4.21;80.59;100650.11;1678526;75;24918;-76
2020/12/10 05:25:35;;;;;;;48.57;24.19;;;-0.90;99.90;;;4.16;80.09;100645.22;1686776;75;24442;-77
2020/12/10 05:28:02;;;;;;;45.51;24.20;;;-0.90;99.90;;;4.09;80.33;100641.59;1682142;75;24466;-77
2020/12/10 05:30:18;;;;;;;48.79;25.44;;;-0.90;99.90;;;4.16;80.55;100640.95;1684490;75;24456;-76
2020/12/10 05:32:43;;;;;;;44.05;24.49;;;-1.00;99.90;;;4.16;80.82;100629.36;1681064;75;24917;-77
2020/12/10 05:35:00;;;;;;;46.20;24.11;;;-0.90;99.90;;;4.21;80.82;100637.23;1682860;75;24446;-76
2020/12/10 05:37:31;;;;;;;43.12;23.51;;;-1.00;99.90;;;4.20;81.21;100640.24;1683633;75;24445;-77
2020/12/10 05:39:52;;;;;;;40.81;21.81;;;-1.00;99.90;;;4.08;80.68;100642.40;1689764;74;24988;-76
2020/12/10 05:42:11;;;;;;;42.94;23.42;;;-1.00;99.90;;;3.98;80.63;100639.48;1660293;77;24441;-75
2020/12/10 05:44:28;;;;;;;46.96;24.47;;;-1.00;99.90;;;4.05;80.89;100635.86;1710295;74;24936;-77
2020/12/10 05:46:48;;;;;;;43.63;23.49;;;-1.00;99.90;;;4.07;81.20;100639.77;1678864;74;24523;-76
2020/12/10 05:49:08;;;;;;;47.23;24.71;;;-1.00;99.90;;;4.03;81.28;100641.80;1710013;74;24857;-77
2020/12/10 05:51:26;;;;;;;46.79;24.17;;;-1.00;99.90;;;4.03;81.21;100650.81;1716429;74;24459;-76
2020/12/10 05:53:48;;;;;;;42.60;23.87;;;-1.10;99.90;;;4.09;81.64;100651.90;1703055;74;24436;-77
2020/12/10 05:56:08;;;;;;;47.83;22.96;;;-1.10;99.90;;;4.11;81.59;100648.94;1706789;74;24437;-76
2020/12/10 05:58:25;;;;;;;48.25;24.50;;;-1.10;99.90;;;4.04;81.12;100648.29;1709351;74;24562;-76
2020/12/10 06:00:42;;;;;;;47.75;25.20;;;-1.10;99.90;;;3.96;81.46;100654.88;1682550;75;24497;-76
2020/12/10 06:03:02;;;;;;;46.94;25.13;;;-1.10;99.90;;;4.02;81.77;100648.64;1700293;74;24433;-76
2020/12/10 06:05:20;;;;;;;49.09;25.87;;;-1.10;99.90;;;3.99;81.33;100648.95;1704587;74;24918;-76
2020/12/10 06:07:39;;;;;;;51.09;26.65;;;-1.10;99.90;;;4.04;82.00;100648.29;1708172;74;24456;-79
2020/12/10 06:09:56;;;;;;;54.40;26.82;;;-1.10;99.90;;;3.98;81.67;100655.78;1702876;74;24477;-76
2020/12/10 06:12:14;;;;;;;57.42;28.64;;;-1.00;99.90;;;4.18;82.85;100649.61;1706674;74;24922;-78
2020/12/10 06:14:31;;;;;;;59.94;29.14;;;-0.90;99.90;;;4.33;84.11;100652.67;1703258;74;24504;-78
2020/12/10 06:16:48;;;;;;;47.68;25.92;;;-0.80;99.90;;;4.26;83.33;100657.18;1701903;74;24472;-76
2020/12/10 06:19:08;;;;;;;51.45;27.04;;;-0.80;99.90;;;4.13;83.49;100660.17;1698833;74;24923;-79
2020/12/10 06:21:44;;;;;;;52.08;26.75;;;-0.80;99.90;;;4.14;83.80;100665.78;1701095;74;24529;-78
2020/12/10 06:24:01;;;;;;;52.50;26.84;;;-0.80;99.90;;;4.19;84.30;100676.23;1700528;74;24663;-78
2020/12/10 06:26:52;;;;;;;48.74;26.64;;;-0.90;99.90;;;4.17;84.08;100677.91;1699252;74;24972;-80
2020/12/10 06:29:23;;;;;;;49.76;25.46;;;-0.90;99.90;;;4.09;83.76;100685.39;1709607;74;24499;-78
2020/12/10 06:31:50;;;;;;;51.66;27.70;;;-0.90;99.90;;;4.01;83.99;100693.67;1701367;74;24889;-78
2020/12/10 06:34:06;;;;;;;45.20;23.40;;;-0.90;99.90;;;4.10;84.14;100690.99;1704286;74;24469;-78
2020/12/10 06:36:28;;;;;;;48.95;25.50;;;-0.90;99.90;;;4.05;83.77;100695.52;1704640;74;24452;-78
2020/12/10 06:38:45;;;;;;;46.27;26.44;;;-0.90;99.90;;;4.03;83.67;100695.46;1704201;74;24433;-77
2020/12/10 06:41:03;;;;;;;47.01;24.73;;;-0.90;99.90;;;4.03;84.02;100691.59;1707097;74;24447;-76
2020/12/10 06:43:22;;;;;;;46.59;26.59;;;-0.90;99.90;;;3.96;83.78;100693.52;1698028;74;24557;-78
2020/12/10 06:45:40;;;;;;;49.99;27.36;;;-0.90;99.90;;;4.03;83.97;100691.59;1710769;74;24492;-76
2020/12/10 06:48:00;;;;;;;48.86;25.92;;;-0.90;99.90;;;4.12;84.31;100693.22;1707672;74;24423;-75
2020/12/10 06:50:28;;;;;;;48.34;26.45;;;-0.90;99.90;;;4.01;84.29;100698.42;1699808;74;24870;-76
2020/12/10 06:53:09;;;;;;;50.18;26.19;;;-0.90;99.90;;;4.12;84.29;100698.77;1702056;74;24496;-76
2020/12/10 06:55:25;;;;;;;44.55;24.02;;;-0.90;99.90;;;4.15;84.06;100701.05;1699998;74;24881;-76
2020/12/10 07:00:49;;;;;;;50.92;24.93;;;-1.00;99.90;;;4.40;83.11;100701.03;1738484;72;25270;-77
2020/12/10 07:03:18;;;;;;;46.69;25.53;;;-1.00;99.90;;;4.13;83.66;100712.99;1727396;73;25271;-77
2020/12/10 07:05:36;;;;;;;52.08;26.68;;;-1.00;99.90;;;4.15;83.61;100711.35;1723392;73;24493;-77
2020/12/10 07:08:10;;;;;;;49.22;26.79;;;-1.00;99.90;;;4.11;83.36;100705.62;1719471;73;24452;-77
2020/12/10 07:10:44;;;;;;;61.83;26.70;;;-1.00;99.90;;;4.15;83.73;100710.06;1718211;74;24448;-77
2020/12/10 07:13:00;;;;;;;54.04;27.94;;;-1.00;99.90;;;4.06;83.18;100704.58;1720779;73;24447;-77
2020/12/10 07:15:23;;;;;;;52.92;28.92;;;-1.10;99.90;;;4.06;83.53;100702.00;1720152;73;24453;-77
2020/12/10 07:17:37;;;;;;;55.94;28.93;;;-1.10;99.90;;;4.04;83.37;100702.79;1717154;73;24455;-75
2020/12/10 07:19:53;;;;;;;51.92;29.01;;;-1.00;99.90;;;3.97;83.24;100700.41;1716854;73;24466;-77
2020/12/10 07:22:09;;;;;;;51.81;26.33;;;-1.00;99.90;;;4.10;83.86;100701.30;1721529;73;24427;-76
2020/12/10 07:24:25;;;;;;;52.19;26.46;;;-1.00;99.90;;;4.00;83.46;100700.52;1716759;73;24445;-78
2020/12/10 07:26:43;;;;;;;58.35;28.48;;;-1.00;99.90;;;4.09;83.73;100700.84;1734534;73;24488;-78
2020/12/10 07:28:59;;;;;;;54.60;27.83;;;-1.00;99.90;;;4.03;83.55;100699.77;1720508;73;24967;-77
2020/12/10 07:31:19;;;;;;;56.86;28.88;;;-1.00;99.90;;;4.16;83.79;100695.46;1716490;73;24966;-77
2020/12/10 07:33:37;;;;;;;52.25;27.67;;;-1.00;99.90;;;4.14;83.44;100696.70;1717452;73;25622;-76
2020/12/10 07:35:53;;;;;;;53.03;27.67;;;-1.00;99.90;;;4.22;83.41;100698.27;1718399;73;24437;-78
2020/12/10 07:38:13;;;;;;;56.61;26.88;;;-1.00;99.90;;;4.23;83.48;100693.16;1717920;73;24922;-77
2020/12/10 07:40:30;;;;;;;50.31;28.13;;;-0.90;99.90;;;4.21;83.18;100702.53;1728359;73;24439;-77
2020/12/10 07:42:47;;;;;;;54.23;28.13;;;-0.90;99.90;;;4.23;83.03;100694.45;1724318;73;24518;-76
2020/12/10 07:45:13;;;;;;;51.46;27.41;;;-0.90;99.90;;;4.24;83.29;100692.73;1717652;73;24546;-78
2020/12/10 07:47:29;;;;;;;54.44;27.72;;;-0.90;99.90;;;4.29;83.52;100695.94;1720988;73;24503;-79
2020/12/10 07:49:45;;;;;;;55.20;27.30;;;-0.90;99.90;;;4.32;84.04;100687.02;1718449;73;24486;-77
2020/12/10 07:52:08;;;;;;;54.21;27.94;;;-0.90;99.90;;;4.28;83.30;100694.16;1715215;74;24970;-78
2020/12/10 07:54:25;;;;;;;60.85;29.82;;;-0.90;99.90;;;4.24;83.26;100688.45;1716975;73;24983;-77
2020/12/10 07:56:44;;;;;;;54.80;28.49;;;-0.90;99.90;;;4.25;83.45;100691.48;1718330;73;24511;-77
2020/12/10 07:59:13;;;;;;;57.72;29.63;;;-0.80;99.90;;;4.39;84.13;100688.94;1715900;73;24964;-78
2020/12/10 08:01:36;;;;;;;54.52;27.58;;;-0.80;99.90;;;4.34;83.32;100693.10;1719156;73;24563;-77
2020/12/10 08:04:00;;;;;;;52.47;28.76;;;-0.80;99.90;;;4.40;83.61;100700.14;1708288;73;24904;-78
2020/12/10 08:06:18;;;;;;;56.80;29.34;;;-0.80;99.90;;;4.35;83.10;100707.73;1705945;74;26005;-78
2020/12/10 08:08:42;;;;;;;58.20;28.62;;;-0.70;99.90;;;4.31;83.13;100698.16;1706840;74;24467;-79
2020/12/10 08:11:11;;;;;;;56.69;28.57;;;-0.70;99.90;;;4.32;83.37;100697.72;1705755;75;24626;-79
2020/12/10 08:13:27;;;;;;;59.84;29.40;;;-0.70;99.90;;;4.38;83.86;100698.80;1704749;75;24667;-79
2020/12/10 08:15:47;;;;;;;58.46;29.75;;;-0.60;99.90;;;4.40;83.81;100700.14;1704646;74;24996;-79
2020/12/10 08:18:06;;;;;;;60.14;29.73;;;-0.60;99.90;;;4.43;84.19;100689.52;1704806;74;24993;-78
2020/12/10 08:20:34;;;;;;;54.24;28.46;;;-0.50;99.90;;;4.40;84.04;100696.27;1710665;74;24548;-78
2020/12/10 08:23:00;;;;;;;58.29;29.86;;;-0.50;99.90;;;4.43;84.55;100694.68;1703943;74;24682;-78
2020/12/10 08:25:18;;;;;;;54.67;29.18;;;-0.50;99.90;;;4.51;85.02;100691.05;1708224;74;24429;-77
2020/12/10 08:27:36;;;;;;;57.32;30.33;;;-0.40;99.90;;;4.63;84.85;100688.45;1704669;74;24492;-80
2020/12/10 08:30:03;;;;;;;59.63;30.61;;;-0.40;99.90;;;4.70;84.86;100679.20;1719865;74;24447;-77
2020/12/10 08:32:21;;;;;;;59.50;29.76;;;-0.40;99.90;;;4.66;84.50;100683.38;1704748;74;24857;-79
2020/12/10 08:34:39;;;;;;;55.46;29.25;;;-0.30;99.90;;;4.69;84.35;100686.48;1710552;74;24490;-79
2020/12/10 08:39:34;;;;;;;56.93;27.47;;;-0.20;99.90;;;4.81;84.38;100688.55;1735922;72;25683;-79
2020/12/10 08:41:53;;;;;;;60.43;30.18;;;-0.20;99.90;;;4.62;85.13;100694.44;1700272;75;25120;-79
2020/12/10 08:44:12;;;;;;;56.47;29.22;;;-0.20;99.90;;;4.62;85.54;100693.55;1695623;75;24528;-80
2020/12/10 08:46:30;;;;;;;52.58;28.46;;;-0.10;99.90;;;4.68;85.82;100690.31;1690679;75;24473;-77
2020/12/10 08:48:46;;;;;;;55.10;29.17;;;-0.10;99.90;;;4.69;86.10;100689.06;1693281;75;24509;-79
2020/12/10 08:51:04;;;;;;;52.47;28.21;;;0.00;99.90;;;4.78;86.17;100693.21;1689300;75;24901;-79
2020/12/10 09:08:35;;;;;;;52.39;29.60;;;0.90;99.90;;;5.01;88.15;100702.95;1741070;72;25271;-78
2020/12/10 09:10:51;;;;;;;52.14;29.12;;;0.80;99.90;;;5.08;88.60;100707.45;1693129;75;24922;-78
2020/12/10 09:13:08;;;;;;;50.91;28.59;;;0.70;99.90;;;5.14;87.95;100712.38;1696146;75;24500;-78
2020/12/10 09:15:24;;;;;;;47.89;27.44;;;0.70;99.90;;;5.00;87.53;100711.50;1698882;75;24942;-78
2020/12/10 09:17:43;;;;;;;45.87;26.57;;;0.60;99.90;;;4.84;87.92;100709.30;1700131;75;24428;-79
2020/12/10 09:20:01;;;;;;;47.56;26.59;;;0.50;99.90;;;4.94;88.09;100703.58;1689485;75;25197;-77
2020/12/10 09:22:17;;;;;;;47.11;26.58;;;0.50;99.90;;;4.93;88.04;100702.73;1699034;75;24504;-78
2020/12/10 09:24:35;;;;;;;52.34;29.19;;;0.50;99.90;;;5.10;88.12;100712.25;1702984;75;24437;-77
2020/12/10 09:26:51;;;;;;;49.64;27.95;;;0.50;99.90;;;5.36;87.82;100715.20;1702422;74;24535;-78
2020/12/10 09:29:07;;;;;;;51.03;27.80;;;0.60;99.90;;;5.37;87.76;100715.64;1699782;75;24448;-79
2020/12/10 09:31:23;;;;;;;49.71;28.14;;;0.60;99.90;;;5.38;87.50;100715.69;1701543;75;24634;-78
2020/12/10 09:33:39;;;;;;;53.54;30.41;;;0.70;99.90;;;5.38;87.59;100716.09;1690973;75;24627;-78
2020/12/10 09:35:55;;;;;;;51.59;30.49;;;0.80;99.90;;;5.57;88.18;100719.66;1698645;75;24462;-78
2020/12/10 09:38:13;;;;;;;56.41;29.01;;;0.90;99.90;;;5.64;88.35;100718.58;1689298;75;24492;-78
2020/12/10 09:40:29;;;;;;;52.57;29.45;;;1.00;99.90;;;5.74;87.71;100719.71;1690344;75;24621;-80
2020/12/10 09:42:49;;;;;;;50.09;27.51;;;1.10;99.90;;;5.91;88.53;100718.08;1690939;75;24587;-78
2020/12/10 09:45:06;;;;;;;48.72;27.90;;;1.20;99.90;;;5.88;88.16;100715.86;1695920;75;24441;-77
2020/12/10 09:47:22;;;;;;;51.20;27.64;;;1.40;99.90;;;6.22;88.66;100715.89;1696643;75;24631;-80
2020/12/10 09:49:38;;;;;;;51.60;29.74;;;1.60;99.90;;;6.25;87.88;100718.56;1701791;74;24441;-78
2020/12/10 09:51:57;;;;;;;46.22;28.05;;;2.00;99.90;;;6.67;88.97;100708.41;1691515;75;24944;-78